createdAt,value
2022-09-20T00:01:25.861Z,6.45
2022-09-20T00:03:58.760Z,6.38
2022-09-20T00:06:28.896Z,8.55
2022-09-20T00:08:56.623Z,7.97
2022-09-20T00:11:26.389Z,9.40
2022-09-20T00:13:55.990Z,8.52
2022-09-20T00:16:32.217Z,6.10
2022-09-20T00:19:00.952Z,3.63
2022-09-20T00:21:29.850Z,7.45
2022-09-20T00:23:57.489Z,6.53
2022-09-20T00:26:28.397Z,4.22
2022-09-20T00:28:56.047Z,7.43
2022-09-20T00:31:22.705Z,6.40
2022-09-20T00:34:08.145Z,8.00
2022-09-20T00:36:34.594Z,8.77
2022-09-20T00:39:04.262Z,4.65
2022-09-20T00:41:31.894Z,6.50
2022-09-20T00:43:59.115Z,9.25
2022-09-20T00:46:43.433Z,6.25
2022-09-20T00:49:18.472Z,7.65
2022-09-20T00:52:04.883Z,5.43
2022-09-20T00:54:51.549Z,7.35
2022-09-20T00:57:38.788Z,5.82
2022-09-20T01:00:26.731Z,9.40
2022-09-20T01:03:17.660Z,10.27
2022-09-20T01:06:09.376Z,3.72
2022-09-20T01:08:36.683Z,7.30
2022-09-20T01:11:03.954Z,4.63
2022-09-20T01:13:31.202Z,10.98
2022-09-20T01:16:00.797Z,7.68
2022-09-20T01:18:29.798Z,10.47
2022-09-20T01:20:56.918Z,9.30
2022-09-20T01:23:31.143Z,7.35
2022-09-20T01:26:25.624Z,4.78
2022-09-20T01:29:13.795Z,5.43
2022-09-20T01:31:46.403Z,7.95
2022-09-20T01:34:36.355Z,12.75
2022-09-20T01:37:26.784Z,7.82
2022-09-20T01:40:24.456Z,9.60
2022-09-20T01:43:30.583Z,7.57
2022-09-20T01:46:02.814Z,5.70
2022-09-20T01:48:39.907Z,7.57
2022-09-20T01:51:25.061Z,9.82
2022-09-20T01:54:13.522Z,4.65
2022-09-20T01:56:59.330Z,7.18
2022-09-20T01:59:44.540Z,8.82
2022-09-20T02:02:40.452Z,14.75
2022-09-20T02:05:10.461Z,6.45
2022-09-20T02:08:05.160Z,9.00
2022-09-20T02:10:57.842Z,8.40
2022-09-20T02:13:30.531Z,5.80
2022-09-20T02:16:31.715Z,7.57
2022-09-20T02:19:32.700Z,8.27
2022-09-20T02:22:26.272Z,6.78
2022-09-20T02:25:12.104Z,10.98
2022-09-20T02:28:08.646Z,3.65
2022-09-20T02:30:47.794Z,9.63
2022-09-20T02:33:36.206Z,5.88
2022-09-20T02:36:21.678Z,7.38
2022-09-20T02:38:51.182Z,8.15
2022-09-20T02:41:51.366Z,4.55
2022-09-20T02:44:58.032Z,5.93
2022-09-20T02:47:34.094Z,9.88
2022-09-20T02:50:40.145Z,4.95
2022-09-20T02:53:32.746Z,6.93
2022-09-20T02:56:30.079Z,6.25
2022-09-20T02:59:20.913Z,11.30
2022-09-20T03:02:03.867Z,5.40
2022-09-20T03:04:56.655Z,6.38
2022-09-20T03:07:39.782Z,4.63
2022-09-20T03:10:17.611Z,7.80
2022-09-20T03:13:00.954Z,11.10
2022-09-20T03:15:39.610Z,8.98
2022-09-20T03:18:09.157Z,9.95
2022-09-20T03:20:47.213Z,9.82
2022-09-20T03:23:22.382Z,8.35
2022-09-20T03:26:08.150Z,5.57
2022-09-20T03:28:58.298Z,7.15
2022-09-20T03:31:56.005Z,15.93
2022-09-20T03:35:07.300Z,7.07
2022-09-20T03:37:48.401Z,6.55
2022-09-20T03:40:24.216Z,8.13
2022-09-20T03:42:54.820Z,16.92
2022-09-20T03:48:54.878Z,10.38
2022-09-20T03:51:33.777Z,9.80
2022-09-20T03:54:09.894Z,11.80
2022-09-20T03:57:18.839Z,11.57
2022-09-20T04:00:07.250Z,12.43
2022-09-20T04:02:55.970Z,10.02
2022-09-20T04:05:33.509Z,5.13
2022-09-20T04:08:27.310Z,8.77
2022-09-20T04:11:03.293Z,6.00
2022-09-20T04:13:44.323Z,11.20
2022-09-20T04:16:42.820Z,9.40
2022-09-20T04:19:18.194Z,10.75
2022-09-20T04:21:57.203Z,7.63
2022-09-20T04:24:30.131Z,10.57
2022-09-20T04:27:15.083Z,11.25
2022-09-20T04:30:22.835Z,16.40
2022-09-20T04:33:00.342Z,12.82
2022-09-20T04:36:12.473Z,5.43
2022-09-20T04:38:39.793Z,9.73
2022-09-20T04:41:29.670Z,6.53
2022-09-20T04:44:30.685Z,5.75
2022-09-20T04:47:16.404Z,8.75
2022-09-20T04:50:14.160Z,7.22
2022-09-20T04:53:44.676Z,7.40
2022-09-20T04:56:36.714Z,9.57
2022-09-20T04:59:08.109Z,7.10
2022-09-20T05:02:00.294Z,11.15
2022-09-20T05:04:51.942Z,9.88
2022-09-20T05:07:50.532Z,10.23
2022-09-20T05:10:35.439Z,9.05
2022-09-20T05:13:29.736Z,13.48
2022-09-20T05:16:21.643Z,9.93
2022-09-20T05:19:06.618Z,8.77
2022-09-20T05:21:45.344Z,8.25
2022-09-20T05:24:42.907Z,7.40
2022-09-20T05:27:35.609Z,12.23
2022-09-20T05:30:16.315Z,7.93
2022-09-20T05:33:00.794Z,8.93
2022-09-20T05:35:38.836Z,14.20
2022-09-20T05:38:22.023Z,11.13
2022-09-20T05:41:08.560Z,7.90
2022-09-20T05:43:43.121Z,13.80
2022-09-20T05:46:18.934Z,9.82
2022-09-20T05:49:13.166Z,10.40
2022-09-20T05:51:59.864Z,9.20
2022-09-20T05:54:35.344Z,10.82
2022-09-20T05:57:21.774Z,10.20
2022-09-20T05:59:55.315Z,14.75
2022-09-20T06:02:37.520Z,14.13
2022-09-20T06:05:29.456Z,14.63
2022-09-20T06:08:15.933Z,10.90
2022-09-20T06:10:47.231Z,14.52
2022-09-20T06:13:35.096Z,14.10
2022-09-20T06:16:04.849Z,10.48
2022-09-20T06:18:43.106Z,7.85
2022-09-20T06:21:25.425Z,10.25
2022-09-20T06:23:58.776Z,9.18
2022-09-20T06:26:29.245Z,12.50
2022-09-20T06:29:00.717Z,15.05
2022-09-20T06:31:27.530Z,12.50
2022-09-20T06:34:08.268Z,10.20
2022-09-20T06:36:56.020Z,13.95
2022-09-20T06:40:01.885Z,11.30
2022-09-20T06:42:29.497Z,14.18
2022-09-20T06:44:55.883Z,20.55
2022-09-20T06:47:26.100Z,17.80
2022-09-20T06:49:52.657Z,8.57
2022-09-20T06:52:21.465Z,9.98
2022-09-20T06:54:51.716Z,10.20
2022-09-20T06:57:22.819Z,9.30
2022-09-20T06:59:51.526Z,12.60
2022-09-20T07:02:17.974Z,10.18
2022-09-20T07:04:45.045Z,11.23
2022-09-20T07:07:16.370Z,15.30
2022-09-20T07:09:42.796Z,19.58
2022-09-20T07:12:11.929Z,15.05
2022-09-20T07:14:38.905Z,13.73
2022-09-20T07:17:06.100Z,15.02
2022-09-20T07:19:32.497Z,13.23
2022-09-20T07:21:58.959Z,9.50
2022-09-20T07:24:25.495Z,13.75
2022-09-20T07:26:57.570Z,15.30
2022-09-20T07:29:24.254Z,7.97
2022-09-20T07:31:50.784Z,9.02
2022-09-20T07:34:20.330Z,13.20
2022-09-20T07:36:51.091Z,11.25
2022-09-20T07:39:18.020Z,11.48
2022-09-20T07:41:48.277Z,12.43
2022-09-20T07:44:21.895Z,17.23
2022-09-20T07:46:49.474Z,12.00
2022-09-20T07:49:15.903Z,11.77
2022-09-20T07:51:42.558Z,16.55
2022-09-20T07:54:09.298Z,8.77
2022-09-20T07:56:36.099Z,9.02
2022-09-20T07:59:02.509Z,14.07
2022-09-20T08:01:29.399Z,17.73
2022-09-20T08:03:57.144Z,14.40
2022-09-20T08:06:24.153Z,12.75
2022-09-20T08:08:51.603Z,9.35
2022-09-20T08:11:27.504Z,11.70
2022-09-20T08:14:11.376Z,13.80
2022-09-20T08:16:49.664Z,13.73
2022-09-20T08:19:17.385Z,15.00
2022-09-20T08:21:44.690Z,14.73
2022-09-20T08:24:11.579Z,8.63
2022-09-20T08:26:38.116Z,16.05
2022-09-20T08:29:05.909Z,11.32
2022-09-20T08:31:36.732Z,18.02
2022-09-20T08:34:09.217Z,18.20
2022-09-20T08:36:41.032Z,11.18
2022-09-20T08:42:27.105Z,12.75
2022-09-20T08:45:34.550Z,15.00
2022-09-20T08:48:05.760Z,9.95
2022-09-20T08:50:34.151Z,11.82
2022-09-20T08:53:05.124Z,15.93
2022-09-20T08:55:39.957Z,14.25
2022-09-20T08:58:11.959Z,9.55
2022-09-20T09:00:39.519Z,15.63
2022-09-20T09:03:12.300Z,17.45
2022-09-20T09:05:46.493Z,13.10
2022-09-20T09:08:27.547Z,12.88
2022-09-20T09:11:04.664Z,8.93
2022-09-20T09:13:34.141Z,12.27
2022-09-20T09:16:06.424Z,15.05
2022-09-20T09:18:37.192Z,15.45
2022-09-20T09:21:05.924Z,11.40
2022-09-20T09:23:45.467Z,9.95
2022-09-20T09:26:17.453Z,9.80
2022-09-20T09:28:43.970Z,15.85
2022-09-20T09:31:22.238Z,11.52
2022-09-20T09:33:49.350Z,15.38
2022-09-20T09:36:22.505Z,11.43
2022-09-20T09:38:49.198Z,11.15
2022-09-20T09:41:24.292Z,10.38
2022-09-20T09:44:10.069Z,10.70
2022-09-20T09:46:39.973Z,15.80
2022-09-20T09:49:16.094Z,15.68
2022-09-20T09:52:01.662Z,9.07
2022-09-20T09:54:35.956Z,20.40
2022-09-20T09:57:29.987Z,9.18
2022-09-20T10:00:20.324Z,11.02
2022-09-20T10:03:07.644Z,10.75
2022-09-20T10:06:02.696Z,9.95
2022-09-20T10:08:52.914Z,14.82
2022-09-20T10:11:46.030Z,13.60
2022-09-20T10:14:37.168Z,14.27
2022-09-20T10:17:25.189Z,8.90
2022-09-20T10:20:18.024Z,11.02
2022-09-20T10:23:34.497Z,11.70
2022-09-20T10:26:06.271Z,15.23
2022-09-20T10:28:51.616Z,7.20
2022-09-20T10:31:38.085Z,12.18
2022-09-20T10:34:38.594Z,10.48
2022-09-20T10:37:15.938Z,12.30
2022-09-20T10:39:46.572Z,10.93
2022-09-20T10:42:59.206Z,7.05
2022-09-20T10:46:08.791Z,10.77
2022-09-20T10:48:38.107Z,8.25
2022-09-20T10:51:15.662Z,8.70
2022-09-20T10:53:54.701Z,11.70
2022-09-20T10:56:49.603Z,7.75
2022-09-20T10:59:43.590Z,8.82
2022-09-20T11:02:22.430Z,9.90
2022-09-20T11:05:00.868Z,9.48
2022-09-20T11:07:48.980Z,8.98
2022-09-20T11:10:24.177Z,15.18
2022-09-20T11:13:18.378Z,5.07
2022-09-20T11:16:04.033Z,5.45
2022-09-20T11:18:48.725Z,8.85
2022-09-20T11:21:27.161Z,3.63
2022-09-20T11:24:03.895Z,3.15
2022-09-20T11:27:10.228Z,6.53
2022-09-20T11:29:45.852Z,3.10
2022-09-20T11:32:22.505Z,6.38
2022-09-20T11:34:55.569Z,3.63
2022-09-20T11:37:25.404Z,4.97
2022-09-20T11:39:55.662Z,4.72
2022-09-20T11:42:28.481Z,3.90
2022-09-20T11:44:55.889Z,3.83
2022-09-20T11:47:53.793Z,1.90
2022-09-20T11:50:44.943Z,6.40
2022-09-20T11:53:26.838Z,4.45
2022-09-20T11:56:14.550Z,4.60
2022-09-20T11:58:52.750Z,4.50
2022-09-20T12:01:36.177Z,6.40
2022-09-20T12:04:41.597Z,4.53
2022-09-20T12:07:17.590Z,2.50
2022-09-20T12:09:52.839Z,5.78
2022-09-20T12:12:38.955Z,3.60
2022-09-20T12:15:23.281Z,3.58
2022-09-20T12:17:50.138Z,4.35
2022-09-20T12:20:35.192Z,5.03
2022-09-20T12:23:35.860Z,4.32
2022-09-20T12:26:10.927Z,2.20
2022-09-20T12:28:41.449Z,4.78
2022-09-20T12:31:26.406Z,6.50
2022-09-20T12:34:25.359Z,3.78
2022-09-20T12:36:52.075Z,2.97
2022-09-20T12:39:26.306Z,3.00
2022-09-20T12:42:02.171Z,5.72
2022-09-20T12:44:31.964Z,5.50
2022-09-20T12:47:02.001Z,5.78
2022-09-20T12:50:05.929Z,3.63
2022-09-20T12:52:57.787Z,3.95
2022-09-20T12:55:30.402Z,3.45
2022-09-20T12:58:01.871Z,2.97
2022-09-20T13:00:40.712Z,3.38
2022-09-20T13:03:28.689Z,4.30
2022-09-20T13:06:07.569Z,4.50
2022-09-20T13:08:48.170Z,3.40
2022-09-20T13:11:27.341Z,3.70
2022-09-20T13:14:09.242Z,3.85
2022-09-20T13:17:17.313Z,4.68
2022-09-20T13:19:46.591Z,4.38
2022-09-20T13:22:14.727Z,8.55
2022-09-20T13:24:44.980Z,7.35
2022-09-20T13:27:22.149Z,4.70
2022-09-20T13:29:49.482Z,5.03
2022-09-20T13:32:30.387Z,7.57
2022-09-20T13:35:12.324Z,5.72
2022-09-20T13:37:44.789Z,4.93
2022-09-20T13:40:33.557Z,7.25
2022-09-20T13:43:22.581Z,4.32
2022-09-20T13:48:24.336Z,5.65
2022-09-20T13:53:40.119Z,6.07
2022-09-20T13:56:30.092Z,6.97
2022-09-20T13:59:01.048Z,7.32
2022-09-20T14:01:35.580Z,3.40
2022-09-20T14:04:08.945Z,4.60
2022-09-20T14:06:36.307Z,6.53
2022-09-20T14:09:11.176Z,3.03
2022-09-20T14:11:39.501Z,5.32
2022-09-20T14:14:07.835Z,3.85
2022-09-20T14:16:39.545Z,3.85
2022-09-20T14:19:09.266Z,2.45
2022-09-20T14:21:37.480Z,2.00
2022-09-20T14:24:24.707Z,2.67
2022-09-20T14:27:23.844Z,3.58
2022-09-20T14:29:55.006Z,5.22
2022-09-20T14:32:28.518Z,4.63
2022-09-20T14:34:55.176Z,4.45
2022-09-20T14:37:27.844Z,4.78
2022-09-20T14:40:01.150Z,2.45
2022-09-20T14:42:40.651Z,3.28
2022-09-20T14:45:08.143Z,2.00
2022-09-20T14:47:40.138Z,2.88
2022-09-20T14:50:29.080Z,3.55
2022-09-20T14:53:07.233Z,3.22
2022-09-20T14:55:37.397Z,3.88
2022-09-20T14:58:15.098Z,4.03
2022-09-20T15:00:50.433Z,2.72
2022-09-20T15:03:24.678Z,3.20
2022-09-20T15:05:51.443Z,2.85
2022-09-20T15:08:19.656Z,3.55
2022-09-20T15:10:47.277Z,3.45
2022-09-20T15:13:14.202Z,6.25
2022-09-20T15:15:41.707Z,3.97
2022-09-20T15:18:21.049Z,4.28
2022-09-20T15:20:50.980Z,5.45
2022-09-20T15:23:18.095Z,6.75
2022-09-20T15:25:44.913Z,4.25
2022-09-20T15:28:17.147Z,4.70
2022-09-20T15:30:44.571Z,4.28
2022-09-20T15:33:12.199Z,4.88
2022-09-20T15:35:43.345Z,6.22
2022-09-20T15:38:11.686Z,5.60
2022-09-20T15:40:49.282Z,5.70
2022-09-20T15:43:19.469Z,3.78
2022-09-20T15:45:56.783Z,9.63
2022-09-20T15:48:25.791Z,4.85
2022-09-20T15:51:02.801Z,7.00
2022-09-20T15:53:38.255Z,8.68
2022-09-20T15:56:15.359Z,6.35
2022-09-20T15:58:48.367Z,5.15
2022-09-20T16:01:16.631Z,3.67
2022-09-20T16:03:44.959Z,3.78
2022-09-20T16:06:13.436Z,3.47
2022-09-20T16:08:42.387Z,4.22
2022-09-20T16:11:13.299Z,6.82
2022-09-20T16:13:39.900Z,5.32
2022-09-20T16:16:08.738Z,2.58
2022-09-20T16:18:55.132Z,3.35
2022-09-20T16:21:24.459Z,5.45
2022-09-20T16:23:53.558Z,7.65
2022-09-20T16:26:22.491Z,9.10
2022-09-20T16:28:49.635Z,7.70
2022-09-20T16:31:42.619Z,7.90
2022-09-20T16:34:30.468Z,5.53
2022-09-20T16:37:02.034Z,3.58
2022-09-20T16:39:30.283Z,7.53
2022-09-20T16:42:03.799Z,2.85
2022-09-20T16:44:32.135Z,5.65
2022-09-20T16:46:58.873Z,3.28
2022-09-20T16:49:28.648Z,4.50
2022-09-20T16:51:55.688Z,6.05
2022-09-20T16:54:23.102Z,6.32
2022-09-20T16:56:50.725Z,5.05
2022-09-20T16:59:21.602Z,4.80
2022-09-20T17:01:49.061Z,3.92
2022-09-20T17:04:18.235Z,3.95
2022-09-20T17:06:45.522Z,2.63
2022-09-20T17:09:13.253Z,5.63
2022-09-20T17:11:44.670Z,4.20
2022-09-20T17:14:12.391Z,4.55
2022-09-20T17:16:41.351Z,3.22
2022-09-20T17:19:11.100Z,4.60
2022-09-20T17:21:40.195Z,3.17
2022-09-20T17:24:07.617Z,5.55
2022-09-20T17:26:38.499Z,5.10
2022-09-20T17:29:10.250Z,4.72
2022-09-20T17:31:41.562Z,2.15
2022-09-20T17:34:11.021Z,3.25
2022-09-20T17:36:43.128Z,4.10
2022-09-20T17:39:12.096Z,4.03
2022-09-20T17:41:46.911Z,3.13
2022-09-20T17:44:13.683Z,9.00
2022-09-20T17:46:42.030Z,5.55
2022-09-20T17:49:11.039Z,5.40
2022-09-20T17:51:46.360Z,5.43
2022-09-20T17:54:13.999Z,4.10
2022-09-20T17:56:46.292Z,5.70
2022-09-20T17:59:17.184Z,7.20
2022-09-20T18:01:45.426Z,10.80
2022-09-20T18:04:12.633Z,7.28
2022-09-20T18:06:43.368Z,5.53
2022-09-20T18:09:13.512Z,5.75
2022-09-20T18:11:46.842Z,11.27
2022-09-20T18:14:13.471Z,7.60
2022-09-20T18:16:40.605Z,5.35
2022-09-20T18:19:08.505Z,4.80
2022-09-20T18:21:36.702Z,6.20
2022-09-20T18:24:07.727Z,6.03
2022-09-20T18:26:35.912Z,11.73
2022-09-20T18:29:04.595Z,9.55
2022-09-20T18:31:46.029Z,7.25
2022-09-20T18:34:18.069Z,9.98
2022-09-20T18:36:53.235Z,6.88
2022-09-20T18:39:24.917Z,6.78
2022-09-20T18:41:52.967Z,11.55
2022-09-20T18:44:20.789Z,9.57
2022-09-20T18:46:47.855Z,7.68
2022-09-20T18:49:16.678Z,3.67
2022-09-20T18:51:44.475Z,7.30
2022-09-20T18:54:12.040Z,6.45
2022-09-20T18:56:41.004Z,4.22
2022-09-20T18:59:14.439Z,8.20
2022-09-20T19:02:08.327Z,7.03
2022-09-20T19:04:59.598Z,5.68
2022-09-20T19:07:25.954Z,10.25
2022-09-20T19:10:02.938Z,8.73
2022-09-20T19:12:38.959Z,8.00
2022-09-20T19:15:08.659Z,10.40
2022-09-20T19:17:54.809Z,6.63
2022-09-20T19:20:38.608Z,11.57
2022-09-20T19:23:14.147Z,5.97
2022-09-20T19:25:45.392Z,7.10
2022-09-20T19:28:14.335Z,11.25
2022-09-20T19:30:42.590Z,9.15
2022-09-20T19:33:17.049Z,5.10
2022-09-20T19:35:49.592Z,7.13
2022-09-20T19:38:28.629Z,7.18
2022-09-20T19:41:25.419Z,8.35
2022-09-20T19:44:04.498Z,10.35
2022-09-20T19:46:51.992Z,9.43
2022-09-20T19:49:39.983Z,8.52
2022-09-20T19:52:12.005Z,6.38
2022-09-20T19:54:46.597Z,8.77
2022-09-20T19:57:20.317Z,13.30
2022-09-20T19:59:47.416Z,6.00
2022-09-20T20:02:14.321Z,7.07
2022-09-20T20:04:41.524Z,5.43
2022-09-20T20:07:08.084Z,11.38
2022-09-20T20:09:58.556Z,6.97
2022-09-20T20:12:34.623Z,10.18
2022-09-20T20:15:44.510Z,10.88
2022-09-20T20:18:16.946Z,5.20
2022-09-20T20:20:54.001Z,10.45
2022-09-20T20:23:39.839Z,9.00
2022-09-20T20:26:08.377Z,6.90
2022-09-20T20:28:36.058Z,6.40
2022-09-20T20:31:02.934Z,8.90
2022-09-20T20:33:30.811Z,13.70
2022-09-20T20:35:59.645Z,7.85
2022-09-20T20:38:27.335Z,9.40
2022-09-20T20:41:06.366Z,7.47
2022-09-20T20:43:36.076Z,6.20
2022-09-20T20:46:07.697Z,4.47
2022-09-20T20:48:34.821Z,9.77
2022-09-20T20:51:05.917Z,10.57
2022-09-20T20:53:34.671Z,6.68
2022-09-20T20:56:07.103Z,11.75
2022-09-20T20:58:36.404Z,4.55
2022-09-20T21:01:12.131Z,6.55
2022-09-20T21:03:41.219Z,5.38
2022-09-20T21:06:08.810Z,11.07
2022-09-20T21:08:40.036Z,12.77
2022-09-20T21:11:12.399Z,8.82
2022-09-20T21:13:39.364Z,6.28
2022-09-20T21:16:11.140Z,3.28
2022-09-20T21:18:39.620Z,5.78
2022-09-20T21:21:15.033Z,6.10
2022-09-20T21:23:41.919Z,7.45
2022-09-20T21:26:10.787Z,6.40
2022-09-20T21:28:39.716Z,9.00
2022-09-20T21:31:06.813Z,7.05
2022-09-20T21:33:35.754Z,5.75
2022-09-20T21:36:04.508Z,6.10
2022-09-20T21:38:34.491Z,6.43
2022-09-20T21:41:05.768Z,2.92
2022-09-20T21:43:32.979Z,7.38
2022-09-20T21:45:59.824Z,6.40
2022-09-20T21:48:27.321Z,4.60
2022-09-20T21:51:01.323Z,6.18
2022-09-20T21:53:27.883Z,10.05
2022-09-20T21:56:02.294Z,9.73
2022-09-20T21:58:29.675Z,7.57
2022-09-20T22:01:11.904Z,3.20
2022-09-20T22:03:44.275Z,8.18
2022-09-20T22:06:13.858Z,7.72
2022-09-20T22:08:52.018Z,4.95
2022-09-20T22:11:21.135Z,8.02
2022-09-20T22:13:53.785Z,7.63
2022-09-20T22:16:26.190Z,3.80
2022-09-20T22:18:53.531Z,5.65
2022-09-20T22:21:22.710Z,13.63
2022-09-20T22:23:52.100Z,6.10
2022-09-20T22:26:21.845Z,5.65
2022-09-20T22:28:50.341Z,6.47
2022-09-20T22:31:19.856Z,9.07
2022-09-20T22:33:49.446Z,11.63
2022-09-20T22:36:19.215Z,8.50
2022-09-20T22:38:47.595Z,4.85
2022-09-20T22:41:16.214Z,11.60
2022-09-20T22:43:42.984Z,8.57
2022-09-20T22:46:15.032Z,4.45
2022-09-20T22:48:42.688Z,8.75
2022-09-20T22:51:14.800Z,6.72
2022-09-20T22:53:42.209Z,6.97
2022-09-20T22:56:11.722Z,6.13
2022-09-20T22:58:40.900Z,6.20
2022-09-20T23:01:31.926Z,8.23
2022-09-20T23:04:09.888Z,6.50
2022-09-20T23:06:49.125Z,6.32
2022-09-20T23:09:18.188Z,6.90
2022-09-20T23:11:45.508Z,7.85
2022-09-20T23:14:22.379Z,9.82
2022-09-20T23:16:49.538Z,11.52
2022-09-20T23:19:17.108Z,4.15
2022-09-20T23:21:44.486Z,5.93
2022-09-20T23:24:12.970Z,4.38
2022-09-20T23:26:43.064Z,12.13
2022-09-20T23:29:12.745Z,8.52
2022-09-20T23:31:45.608Z,2.97
2022-09-20T23:34:13.755Z,7.20
2022-09-20T23:36:41.575Z,6.75
2022-09-20T23:39:10.100Z,5.93
2022-09-20T23:41:37.284Z,7.22
2022-09-20T23:44:06.337Z,6.22
2022-09-20T23:46:33.227Z,4.22
2022-09-20T23:48:59.897Z,3.97
2022-09-20T23:51:28.624Z,9.52
2022-09-20T23:53:55.590Z,4.05
2022-09-20T23:56:23.629Z,8.38
2022-09-20T23:58:50.487Z,6.07
